createdAt,value
2023-01-06T00:00:33.205Z,99937.84
2023-01-06T00:03:16.975Z,99944.56
2023-01-06T00:06:01.229Z,99943.69
2023-01-06T00:08:45.089Z,99945.00
2023-01-06T00:11:29.393Z,99956.34
2023-01-06T00:14:14.716Z,99973.94
2023-01-06T00:16:58.403Z,99948.97
2023-01-06T00:19:42.212Z,99933.44
2023-01-06T00:22:26.034Z,99957.94
2023-01-06T00:25:11.670Z,99979.72
2023-01-06T00:27:56.757Z,99977.00
2023-01-06T00:30:41.985Z,99992.88
2023-01-06T00:33:26.300Z,99995.25
2023-01-06T00:36:12.271Z,100010.25
2023-01-06T00:38:56.136Z,100002.91
2023-01-06T00:41:57.679Z,100000.97
2023-01-06T00:44:41.937Z,100022.28
2023-01-06T00:47:27.567Z,100021.06
2023-01-06T00:50:12.317Z,100030.34
2023-01-06T00:52:56.492Z,100037.97
2023-01-06T00:55:40.368Z,100021.38
2023-01-06T00:58:25.522Z,100047.34
2023-01-06T01:01:10.332Z,100033.25
2023-01-06T01:03:55.638Z,100029.78
2023-01-06T01:06:40.015Z,100036.13
2023-01-06T01:09:25.999Z,100038.06
2023-01-06T01:12:12.082Z,100017.06
2023-01-06T01:14:56.418Z,100028.69
2023-01-06T01:17:41.133Z,100041.31
2023-01-06T01:20:26.416Z,100045.72
2023-01-06T01:23:10.207Z,100052.34
2023-01-06T01:25:56.350Z,99979.50
2023-01-06T01:28:40.427Z,100047.16
2023-01-06T01:31:24.294Z,100010.06
2023-01-06T01:34:08.536Z,100063.13
2023-01-06T01:36:55.306Z,100026.72
2023-01-06T01:39:39.083Z,100044.19
2023-01-06T01:42:22.979Z,100051.00
2023-01-06T01:45:08.514Z,100047.44
2023-01-06T01:47:57.024Z,100036.81
2023-01-06T01:50:45.034Z,100043.88
2023-01-06T01:53:33.103Z,100049.59
2023-01-06T01:56:21.233Z,100052.91
2023-01-06T01:59:09.860Z,100048.19
2023-01-06T02:01:54.476Z,100048.19
2023-01-06T02:04:42.702Z,100031.31
2023-01-06T02:07:28.649Z,100022.41
2023-01-06T02:10:17.658Z,100063.06
2023-01-06T02:13:02.877Z,100066.69
2023-01-06T02:16:15.435Z,100060.66
2023-01-06T02:19:05.927Z,100043.78
2023-01-06T02:22:08.982Z,100050.53
2023-01-06T02:25:22.070Z,100009.66
2023-01-06T02:28:30.961Z,100071.31
2023-01-06T02:31:34.931Z,99997.50
2023-01-06T02:34:28.545Z,100036.88
2023-01-06T02:37:27.467Z,100034.34
2023-01-06T02:40:22.759Z,100073.91
2023-01-06T02:43:16.400Z,100080.75
2023-01-06T02:46:11.667Z,100050.72
2023-01-06T02:49:08.134Z,100036.22
2023-01-06T02:51:58.276Z,100059.53
2023-01-06T02:54:48.760Z,100044.38
2023-01-06T02:57:39.123Z,100070.44
2023-01-06T03:00:34.827Z,100030.94
2023-01-06T03:03:23.812Z,100044.59
2023-01-06T03:06:17.046Z,100013.94
2023-01-06T03:09:02.654Z,100045.88
2023-01-06T03:11:52.571Z,100055.00
2023-01-06T03:14:40.900Z,100046.53
2023-01-06T03:17:25.713Z,100054.69
2023-01-06T03:20:11.391Z,100072.22
2023-01-06T03:22:56.795Z,100054.00
2023-01-06T03:25:40.899Z,100053.44
2023-01-06T03:28:25.946Z,100061.75
2023-01-06T03:31:19.882Z,100089.31
2023-01-06T03:34:14.026Z,100013.50
2023-01-06T03:37:07.735Z,100054.44
2023-01-06T03:40:00.177Z,100074.50
2023-01-06T03:43:06.260Z,100102.66
2023-01-06T03:45:57.721Z,100069.66
2023-01-06T03:48:58.323Z,100073.19
2023-01-06T03:51:50.301Z,100102.41
2023-01-06T03:54:42.303Z,100117.47
2023-01-06T03:57:33.992Z,100121.47
2023-01-06T04:00:21.255Z,100079.00
2023-01-06T04:03:15.236Z,100129.22
2023-01-06T04:06:01.647Z,100088.72
2023-01-06T04:08:46.155Z,100135.09
2023-01-06T04:11:48.061Z,100144.81
2023-01-06T04:14:33.527Z,100104.06
2023-01-06T04:17:19.258Z,100121.50
2023-01-06T04:20:04.247Z,100126.75
2023-01-06T04:22:49.567Z,100132.34
2023-01-06T04:25:33.652Z,100168.59
2023-01-06T04:28:26.002Z,100170.88
2023-01-06T04:31:12.224Z,100123.59
2023-01-06T04:33:57.707Z,100110.09
2023-01-06T04:36:41.941Z,100109.13
2023-01-06T04:39:25.970Z,100127.38
2023-01-06T04:42:10.269Z,100176.41
2023-01-06T04:44:54.396Z,100178.50
2023-01-06T04:47:39.787Z,100145.38
2023-01-06T04:50:23.808Z,100155.78
2023-01-06T04:53:08.521Z,100161.25
2023-01-06T04:55:52.405Z,100164.66
2023-01-06T04:58:36.937Z,100205.72
2023-01-06T05:01:21.040Z,100197.31
2023-01-06T05:04:07.914Z,100128.00
2023-01-06T05:06:51.895Z,100134.38
2023-01-06T05:09:35.910Z,100167.44
2023-01-06T05:12:20.057Z,100173.25
2023-01-06T05:15:04.310Z,100214.69
2023-01-06T05:17:48.305Z,100224.44
2023-01-06T05:20:33.831Z,100185.06
2023-01-06T05:23:17.866Z,100226.34
2023-01-06T05:26:01.741Z,100239.63
2023-01-06T05:28:45.612Z,100236.78
2023-01-06T05:31:29.431Z,100176.66
2023-01-06T05:34:13.436Z,100223.28
2023-01-06T05:36:58.750Z,100246.56
2023-01-06T05:39:42.499Z,100260.34
2023-01-06T05:42:26.282Z,100258.88
2023-01-06T05:45:11.815Z,100248.34
2023-01-06T05:48:54.145Z,61367.53
2023-01-06T05:55:08.185Z,100235.41
2023-01-06T05:57:51.992Z,100221.22
2023-01-06T06:00:35.766Z,100263.53
2023-01-06T06:03:19.664Z,100264.25
2023-01-06T06:06:04.492Z,100274.03
2023-01-06T06:08:48.369Z,100267.00
2023-01-06T06:11:33.611Z,100277.84
2023-01-06T06:14:17.450Z,100289.72
2023-01-06T06:17:01.363Z,100295.31
2023-01-06T06:19:45.239Z,100297.50
2023-01-06T06:22:28.973Z,100289.84
2023-01-06T06:25:12.737Z,100299.53
2023-01-06T06:28:00.723Z,100297.25
2023-01-06T06:30:44.515Z,100293.94
2023-01-06T06:33:28.342Z,100287.75
2023-01-06T06:36:15.826Z,100311.75
2023-01-06T06:39:00.373Z,100304.53
2023-01-06T06:41:44.165Z,100317.41
2023-01-06T06:44:29.386Z,100323.97
2023-01-06T06:47:14.367Z,100299.31
2023-01-06T06:49:58.179Z,100318.59
2023-01-06T06:52:42.023Z,100316.75
2023-01-06T06:55:25.771Z,100306.75
2023-01-06T06:58:11.013Z,100262.75
2023-01-06T07:00:56.310Z,100305.69
2023-01-06T07:03:40.472Z,100308.06
2023-01-06T07:06:28.057Z,100316.50
2023-01-06T07:09:12.790Z,100306.09
2023-01-06T07:11:56.583Z,100331.97
2023-01-06T07:14:40.305Z,100343.75
2023-01-06T07:17:28.909Z,100312.94
2023-01-06T07:20:13.308Z,100342.09
2023-01-06T07:22:57.284Z,100353.22
2023-01-06T07:25:41.147Z,100337.53
2023-01-06T07:28:25.236Z,100361.50
2023-01-06T07:31:09.117Z,100351.44
2023-01-06T07:33:55.158Z,100361.06
2023-01-06T07:36:38.925Z,100318.91
2023-01-06T07:39:22.815Z,100357.88
2023-01-06T07:42:09.499Z,100361.00
2023-01-06T07:44:53.362Z,100380.47
2023-01-06T07:47:37.540Z,100367.75
2023-01-06T07:50:23.483Z,100358.19
2023-01-06T07:53:07.778Z,100361.78
2023-01-06T07:55:55.339Z,100355.59
2023-01-06T07:58:39.115Z,100350.59
2023-01-06T08:01:23.183Z,100374.44
2023-01-06T08:04:07.036Z,100316.34
2023-01-06T08:06:52.267Z,100350.59
2023-01-06T08:09:36.256Z,100343.31
2023-01-06T08:12:20.048Z,100361.75
2023-01-06T08:15:03.967Z,100369.81
2023-01-06T08:17:48.491Z,100372.28
2023-01-06T08:20:34.091Z,100388.25
2023-01-06T08:23:19.388Z,100379.66
2023-01-06T08:26:04.024Z,100397.06
2023-01-06T08:28:47.902Z,100385.69
2023-01-06T08:31:31.767Z,100403.00
2023-01-06T08:34:15.873Z,100415.03
2023-01-06T08:36:59.695Z,100408.81
2023-01-06T08:39:45.798Z,100432.44
2023-01-06T08:42:29.742Z,100429.97
2023-01-06T08:46:12.943Z,61367.53
2023-01-06T08:49:55.867Z,61367.53
2023-01-06T08:53:38.477Z,61367.53
2023-01-06T08:57:23.000Z,61367.53
2023-01-06T09:01:06.556Z,61367.53
2023-01-06T09:04:49.637Z,61367.53
2023-01-06T09:08:32.063Z,61367.53
2023-01-06T09:12:16.320Z,61367.53
2023-01-06T09:15:58.770Z,61367.53
2023-01-06T09:19:41.084Z,61367.53
2023-01-06T09:23:23.794Z,61367.53
2023-01-06T09:27:06.138Z,61367.53
2023-01-06T09:30:50.193Z,61367.53
2023-01-06T09:34:32.695Z,61367.53
2023-01-06T09:38:15.272Z,61367.53
2023-01-06T09:42:11.950Z,61367.53
2023-01-06T09:46:01.215Z,61367.53
2023-01-06T09:49:51.145Z,61367.53
2023-01-06T09:53:39.972Z,61367.53
2023-01-06T09:57:29.380Z,61367.53
2023-01-06T10:01:23.773Z,61367.53
2023-01-06T10:05:18.609Z,61367.53
2023-01-06T10:09:08.499Z,61367.53
2023-01-06T10:13:04.431Z,61367.53
2023-01-06T10:16:58.421Z,61367.53
2023-01-06T10:21:04.089Z,61367.53
2023-01-06T10:24:56.255Z,61367.53
2023-01-06T10:28:42.304Z,61367.53
2023-01-06T10:32:32.218Z,61367.53
2023-01-06T10:36:16.703Z,61367.53
2023-01-06T10:40:05.119Z,61367.53
2023-01-06T10:43:49.148Z,61367.53
2023-01-06T10:47:35.511Z,61367.53
2023-01-06T10:51:32.808Z,61367.53
2023-01-06T10:55:35.705Z,61367.53
2023-01-06T10:59:30.599Z,61367.53
2023-01-06T11:03:34.713Z,61367.53
2023-01-06T11:07:21.595Z,61367.53
2023-01-06T11:11:27.195Z,61367.53
2023-01-06T11:15:20.868Z,61367.53
2023-01-06T11:19:06.852Z,61367.53
2023-01-06T11:22:49.186Z,61367.53
2023-01-06T11:26:31.511Z,61367.53
2023-01-06T11:30:22.153Z,61367.53
2023-01-06T11:34:20.719Z,61367.53
2023-01-06T11:38:03.107Z,61367.53
2023-01-06T11:40:55.563Z,61367.53
2023-01-06T11:43:40.378Z,61367.53
2023-01-06T11:46:26.704Z,61367.53
2023-01-06T11:49:17.023Z,61367.53
2023-01-06T11:52:03.210Z,61367.53
2023-01-06T11:57:49.557Z,76328.47
2023-01-06T12:00:44.211Z,76328.09
2023-01-06T12:03:33.260Z,100429.97
2023-01-06T12:06:30.534Z,100429.97
2023-01-06T12:09:21.251Z,100429.97
2023-01-06T12:12:07.767Z,100429.97
2023-01-06T12:14:51.649Z,76328.09
2023-01-06T12:17:43.480Z,100429.97
2023-01-06T12:20:30.716Z,100429.97
2023-01-06T12:23:21.873Z,100429.97
2023-01-06T12:26:13.578Z,100429.97
2023-01-06T12:29:00.408Z,100429.97
2023-01-06T12:31:53.438Z,100429.97
2023-01-06T12:34:42.570Z,100429.97
2023-01-06T12:37:33.132Z,100429.97
2023-01-06T12:40:25.648Z,100429.97
2023-01-06T12:43:17.845Z,100429.97
2023-01-06T12:46:08.579Z,100429.97
2023-01-06T12:48:58.318Z,100429.97
2023-01-06T12:51:46.032Z,100429.97
2023-01-06T12:54:33.440Z,100429.97
2023-01-06T12:57:40.080Z,100495.28
2023-01-06T13:00:36.327Z,100413.31
2023-01-06T13:03:48.424Z,100505.44
2023-01-06T13:06:54.412Z,100508.44
2023-01-06T13:09:49.170Z,100514.16
2023-01-06T13:12:48.710Z,100514.63
2023-01-06T13:15:34.087Z,100501.75
2023-01-06T13:18:25.835Z,100505.28
2023-01-06T13:21:12.615Z,100511.19
2023-01-06T13:24:29.710Z,100449.00
2023-01-06T13:27:29.247Z,100497.28
2023-01-06T13:30:38.093Z,100503.63
2023-01-06T13:33:50.955Z,100535.50
2023-01-06T13:37:25.644Z,100527.16
2023-01-06T13:40:17.234Z,100496.06
2023-01-06T13:43:05.391Z,100496.59
2023-01-06T13:45:54.291Z,100544.59
2023-01-06T13:48:43.364Z,100506.19
2023-01-06T13:51:32.692Z,100483.25
2023-01-06T13:54:53.156Z,100558.31
2023-01-06T13:57:39.637Z,100538.84
2023-01-06T14:00:28.787Z,100560.47
2023-01-06T14:03:27.294Z,100536.50
2023-01-06T14:06:13.486Z,100563.41
2023-01-06T14:09:00.111Z,100524.28
2023-01-06T14:11:44.133Z,100563.63
2023-01-06T14:14:32.922Z,100537.28
2023-01-06T14:17:31.329Z,100579.94
2023-01-06T14:20:30.406Z,100584.00
2023-01-06T14:23:24.201Z,100539.69
2023-01-06T14:26:08.464Z,100589.81
2023-01-06T14:28:52.477Z,100554.84
2023-01-06T14:31:40.180Z,100598.00
2023-01-06T14:34:24.433Z,100563.78
2023-01-06T14:37:14.759Z,100606.06
2023-01-06T14:40:02.319Z,100566.78
2023-01-06T14:42:47.781Z,100601.97
2023-01-06T14:45:38.073Z,100582.09
2023-01-06T14:48:24.736Z,100595.28
2023-01-06T14:51:12.002Z,100622.22
2023-01-06T14:54:06.644Z,100637.13
2023-01-06T14:56:55.008Z,100636.81
2023-01-06T14:59:38.917Z,100613.63
2023-01-06T15:02:24.569Z,100623.91
2023-01-06T15:05:17.209Z,100650.19
2023-01-06T15:08:03.292Z,100656.66
2023-01-06T15:10:50.199Z,100660.41
2023-01-06T15:13:34.237Z,100663.84
2023-01-06T15:16:24.263Z,100669.69
2023-01-06T15:19:09.248Z,100662.56
2023-01-06T15:21:54.165Z,100678.31
2023-01-06T15:24:42.701Z,100683.28
2023-01-06T15:27:27.974Z,100674.56
2023-01-06T15:30:16.646Z,100702.81
2023-01-06T15:33:00.658Z,100702.81
2023-01-06T15:35:44.663Z,100689.94
2023-01-06T15:38:31.071Z,100718.03
2023-01-06T15:41:28.943Z,100727.03
2023-01-06T15:44:40.287Z,100746.25
2023-01-06T15:47:31.406Z,100748.19
2023-01-06T15:50:21.235Z,100750.97
2023-01-06T15:53:07.550Z,100744.81
2023-01-06T15:55:56.568Z,100755.03
2023-01-06T15:58:40.925Z,100758.16
2023-01-06T16:01:26.496Z,100750.69
2023-01-06T16:04:16.030Z,100769.50
2023-01-06T16:07:23.970Z,100768.28
2023-01-06T16:10:34.828Z,100793.09
2023-01-06T16:13:29.385Z,100782.16
2023-01-06T16:16:31.719Z,100778.69
2023-01-06T16:19:19.638Z,100794.22
2023-01-06T16:22:08.256Z,100802.50
2023-01-06T16:24:53.077Z,100791.06
2023-01-06T16:27:37.116Z,100801.75
2023-01-06T16:30:24.624Z,100806.31
2023-01-06T16:33:36.025Z,100806.91
2023-01-06T16:36:19.903Z,100807.63
2023-01-06T16:39:06.981Z,100790.88
2023-01-06T16:42:34.216Z,100818.81
2023-01-06T16:45:27.389Z,100824.19
2023-01-06T16:48:15.075Z,100814.72
2023-01-06T16:51:00.299Z,100815.44
2023-01-06T16:53:44.904Z,100805.31
2023-01-06T16:56:28.843Z,100811.81
2023-01-06T16:59:14.502Z,100839.03
2023-01-06T17:01:58.364Z,100849.34
2023-01-06T17:04:42.935Z,100844.59
2023-01-06T17:07:28.177Z,100859.66
2023-01-06T17:10:16.059Z,100849.53
2023-01-06T17:13:20.576Z,100861.63
2023-01-06T17:16:14.813Z,100856.72
2023-01-06T17:19:01.115Z,100864.41
2023-01-06T17:21:44.935Z,100866.72
2023-01-06T17:24:31.906Z,100860.84
2023-01-06T17:27:22.301Z,100818.41
2023-01-06T17:30:15.533Z,100837.97
2023-01-06T17:32:59.334Z,100868.06
2023-01-06T17:35:45.723Z,100870.66
2023-01-06T17:38:29.716Z,100866.94
2023-01-06T17:41:15.065Z,100861.97
2023-01-06T17:43:58.850Z,100856.28
2023-01-06T17:46:42.894Z,100854.16
2023-01-06T17:49:34.567Z,100885.81
2023-01-06T17:52:20.999Z,100883.03
2023-01-06T17:55:44.822Z,100880.63
2023-01-06T17:58:32.503Z,100886.50
2023-01-06T18:01:21.920Z,100896.69
2023-01-06T18:04:09.450Z,100897.16
2023-01-06T18:06:55.725Z,100904.78
2023-01-06T18:09:41.103Z,100908.53
2023-01-06T18:12:24.955Z,100901.66
2023-01-06T18:15:32.055Z,100905.84
2023-01-06T18:18:21.281Z,100902.34
2023-01-06T18:21:27.449Z,100902.13
2023-01-06T18:24:18.076Z,100909.28
2023-01-06T18:27:04.643Z,100908.00
2023-01-06T18:29:48.473Z,100906.97
2023-01-06T18:32:34.860Z,100911.81
2023-01-06T18:35:21.458Z,100913.88
2023-01-06T18:38:05.718Z,100916.25
2023-01-06T18:40:49.546Z,100921.13
2023-01-06T18:43:33.394Z,100911.16
2023-01-06T18:46:19.501Z,100927.56
2023-01-06T18:49:10.612Z,100931.97
2023-01-06T18:51:54.499Z,100926.81
2023-01-06T18:54:38.359Z,100934.44
2023-01-06T18:57:32.857Z,100933.63
2023-01-06T19:00:31.884Z,100937.16
2023-01-06T19:03:30.004Z,100945.75
2023-01-06T19:06:34.092Z,100943.72
2023-01-06T19:09:22.637Z,100947.19
2023-01-06T19:12:27.476Z,100925.09
2023-01-06T19:15:19.618Z,100967.88
2023-01-06T19:18:05.944Z,100966.91
2023-01-06T19:20:49.844Z,100960.59
2023-01-06T19:23:35.978Z,100963.38
2023-01-06T19:26:31.577Z,100962.50
2023-01-06T19:29:16.907Z,100944.22
2023-01-06T19:32:04.167Z,100954.94
2023-01-06T19:34:48.034Z,100959.38
2023-01-06T19:37:33.092Z,100963.41
2023-01-06T19:40:27.368Z,100975.19
2023-01-06T19:43:16.851Z,100971.63
2023-01-06T19:46:04.746Z,100936.97
2023-01-06T19:48:49.838Z,100973.50
2023-01-06T19:51:34.823Z,100968.38
2023-01-06T19:54:30.792Z,100965.97
2023-01-06T19:57:27.641Z,100982.34
2023-01-06T20:00:25.687Z,100944.19
2023-01-06T20:03:27.462Z,100981.97
2023-01-06T20:06:11.691Z,100967.00
2023-01-06T20:08:55.555Z,100985.41
2023-01-06T20:11:39.295Z,100978.56
2023-01-06T20:14:24.560Z,100977.19
2023-01-06T20:17:08.675Z,100990.22
2023-01-06T20:19:53.389Z,100875.16
2023-01-06T20:22:37.421Z,100991.69
2023-01-06T20:25:21.325Z,100991.75
2023-01-06T20:28:06.712Z,100851.47
2023-01-06T20:30:52.319Z,100992.03
2023-01-06T20:33:36.381Z,100996.25
2023-01-06T20:36:20.214Z,101003.63
2023-01-06T20:39:03.998Z,100995.13
2023-01-06T20:41:47.878Z,100970.09
2023-01-06T20:44:31.711Z,100987.88
2023-01-06T20:47:17.327Z,100936.81
2023-01-06T20:50:01.248Z,100987.03
2023-01-06T20:52:47.095Z,100987.63
2023-01-06T20:55:30.872Z,100990.81
2023-01-06T20:58:15.268Z,100991.00
2023-01-06T21:00:59.134Z,100995.91
2023-01-06T21:03:44.511Z,101000.78
2023-01-06T21:06:28.411Z,100998.84
2023-01-06T21:09:12.344Z,100991.97
2023-01-06T21:11:56.496Z,100992.81
2023-01-06T21:14:40.310Z,100997.63
2023-01-06T21:17:24.127Z,100995.84
2023-01-06T21:20:11.008Z,100994.28
2023-01-06T21:22:54.844Z,101002.91
2023-01-06T21:25:38.656Z,100993.78
2023-01-06T21:28:22.440Z,101003.31
2023-01-06T21:31:06.588Z,100999.28
2023-01-06T21:33:50.444Z,100999.13
2023-01-06T21:36:35.652Z,100995.91
2023-01-06T21:39:19.998Z,101000.28
2023-01-06T21:42:21.443Z,101004.59
2023-01-06T21:45:06.215Z,101000.53
2023-01-06T21:47:50.060Z,100960.53
2023-01-06T21:50:36.233Z,101001.16
2023-01-06T21:53:22.815Z,101007.47
2023-01-06T21:56:08.389Z,100992.28
2023-01-06T21:58:52.270Z,101006.94
2023-01-06T22:01:36.178Z,100974.63
2023-01-06T22:04:20.013Z,101017.84
2023-01-06T22:07:09.153Z,100998.56
2023-01-06T22:09:55.370Z,101014.50
2023-01-06T22:12:41.711Z,101019.78
2023-01-06T22:15:25.794Z,101016.75
2023-01-06T22:18:10.167Z,101001.81
2023-01-06T22:20:54.171Z,101012.06
2023-01-06T22:23:38.126Z,101004.84
2023-01-06T22:26:23.165Z,101004.25
2023-01-06T22:29:08.320Z,101006.38
2023-01-06T22:31:52.129Z,101018.44
2023-01-06T22:34:37.280Z,101010.31
2023-01-06T22:37:21.092Z,101009.97
2023-01-06T22:40:05.479Z,101006.75
2023-01-06T22:42:51.134Z,100998.94
2023-01-06T22:45:36.184Z,101001.69
2023-01-06T22:48:20.270Z,101008.06
2023-01-06T22:51:06.436Z,101012.84
2023-01-06T22:53:50.326Z,101025.63
2023-01-06T22:56:34.200Z,101004.72
2023-01-06T22:59:19.326Z,101019.00
2023-01-06T23:02:03.201Z,101019.47
2023-01-06T23:04:47.088Z,100989.69
2023-01-06T23:07:30.904Z,101027.09
2023-01-06T23:10:15.503Z,101025.38
2023-01-06T23:12:59.309Z,101034.22
2023-01-06T23:15:45.822Z,101028.41
2023-01-06T23:18:30.613Z,101019.44
2023-01-06T23:21:17.445Z,100990.19
2023-01-06T23:24:02.413Z,101012.69
2023-01-06T23:26:48.504Z,101010.84
2023-01-06T23:29:32.795Z,101024.66
2023-01-06T23:32:17.989Z,101023.94
2023-01-06T23:35:01.763Z,101025.59
2023-01-06T23:37:46.291Z,101006.44
2023-01-06T23:40:30.048Z,101037.97
2023-01-06T23:43:13.795Z,101032.81
2023-01-06T23:46:01.085Z,101031.75
2023-01-06T23:48:46.837Z,101018.81
2023-01-06T23:51:32.284Z,101036.16
2023-01-06T23:54:16.231Z,101024.53
2023-01-06T23:57:00.007Z,101032.81
2023-01-06T23:59:44.838Z,100999.56
